createdAt,value
2023-02-08T00:00:14.596Z,93.75
2023-02-08T00:01:14.535Z,94.32
2023-02-08T00:02:14.628Z,94.51
2023-02-08T00:03:14.449Z,94.60
2023-02-08T00:04:14.407Z,94.60
2023-02-08T00:05:14.363Z,94.79
2023-02-08T00:06:14.325Z,94.32
2023-02-08T00:07:14.283Z,94.98
2023-02-08T00:08:14.246Z,94.89
2023-02-08T00:09:14.200Z,94.70
2023-02-08T00:10:14.160Z,94.98
2023-02-08T00:11:14.116Z,94.60
2023-02-08T00:12:14.112Z,95.07
2023-02-08T00:13:14.049Z,94.98
2023-02-08T00:14:14.005Z,94.89
2023-02-08T00:15:13.956Z,94.32
2023-02-08T00:16:13.946Z,94.98
2023-02-08T00:17:13.889Z,95.07
2023-02-08T00:18:13.825Z,94.89
2023-02-08T00:19:13.788Z,94.32
2023-02-08T00:20:13.740Z,95.07
2023-02-08T00:21:13.700Z,94.89
2023-02-08T00:22:13.657Z,95.07
2023-02-08T00:23:13.633Z,95.26
2023-02-08T00:24:13.578Z,95.07
2023-02-08T00:25:13.544Z,94.98
2023-02-08T00:26:13.498Z,94.51
2023-02-08T00:27:13.480Z,94.98
2023-02-08T00:28:13.478Z,94.70
2023-02-08T00:29:13.372Z,94.98
2023-02-08T00:30:13.332Z,94.89
2023-02-08T00:31:13.425Z,94.89
2023-02-08T00:32:13.245Z,95.26
2023-02-08T00:33:13.209Z,94.89
2023-02-08T00:34:13.162Z,95.17
2023-02-08T00:35:13.112Z,95.07
2023-02-08T00:36:13.094Z,94.98
2023-02-08T00:37:13.038Z,94.89
2023-02-08T00:38:13.010Z,94.98
2023-02-08T00:39:12.950Z,94.51
2023-02-08T00:40:12.904Z,94.60
2023-02-08T00:41:12.863Z,94.51
2023-02-08T00:42:12.825Z,94.42
2023-02-08T00:43:12.785Z,94.42
2023-02-08T00:44:12.736Z,94.42
2023-02-08T00:45:12.719Z,94.32
2023-02-08T00:46:12.731Z,94.79
2023-02-08T00:47:12.633Z,94.32
2023-02-08T00:48:12.569Z,94.70
2023-02-08T00:49:12.543Z,94.79
2023-02-08T00:50:12.504Z,94.98
2023-02-08T00:51:12.450Z,94.42
2023-02-08T00:52:12.417Z,94.32
2023-02-08T00:53:12.368Z,94.51
2023-02-08T00:54:12.322Z,94.51
2023-02-08T00:55:12.280Z,94.70
2023-02-08T00:56:12.255Z,94.51
2023-02-08T00:57:12.198Z,94.79
2023-02-08T00:58:12.170Z,94.51
2023-02-08T00:59:12.117Z,94.32
2023-02-08T01:00:12.070Z,94.89
2023-02-08T01:01:12.109Z,94.98
2023-02-08T01:02:12.082Z,94.32
2023-02-08T01:03:11.939Z,94.32
2023-02-08T01:04:11.909Z,94.32
2023-02-08T01:05:11.858Z,94.60
2023-02-08T01:06:11.821Z,94.60
2023-02-08T01:07:11.777Z,94.32
2023-02-08T01:08:11.739Z,94.51
2023-02-08T01:09:11.698Z,94.42
2023-02-08T01:10:11.654Z,94.60
2023-02-08T01:11:11.617Z,94.32
2023-02-08T01:12:11.565Z,93.94
2023-02-08T01:13:11.526Z,94.23
2023-02-08T01:14:11.490Z,93.85
2023-02-08T01:15:11.452Z,94.60
2023-02-08T01:16:11.508Z,94.51
2023-02-08T01:17:11.366Z,94.04
2023-02-08T01:18:11.328Z,94.32
2023-02-08T01:19:11.273Z,93.85
2023-02-08T01:20:11.236Z,94.13
2023-02-08T01:21:11.194Z,94.23
2023-02-08T01:22:11.156Z,94.04
2023-02-08T01:23:11.111Z,94.04
2023-02-08T01:24:11.075Z,94.04
2023-02-08T01:25:11.027Z,94.23
2023-02-08T01:26:10.990Z,94.13
2023-02-08T01:27:10.939Z,94.32
2023-02-08T01:28:11.052Z,94.51
2023-02-08T01:29:10.859Z,93.75
2023-02-08T01:30:10.825Z,93.66
2023-02-08T01:31:10.812Z,93.94
2023-02-08T01:32:10.737Z,93.75
2023-02-08T01:33:10.692Z,93.75
2023-02-08T01:34:10.653Z,94.04
2023-02-08T01:35:10.604Z,94.04
2023-02-08T01:36:10.567Z,93.94
2023-02-08T01:37:10.527Z,94.04
2023-02-08T01:38:10.482Z,93.56
2023-02-08T01:39:10.438Z,93.66
2023-02-08T01:40:10.410Z,93.56
2023-02-08T01:41:10.354Z,93.47
2023-02-08T01:42:10.324Z,93.37
2023-02-08T01:43:10.275Z,93.66
2023-02-08T01:44:10.237Z,93.56
2023-02-08T01:45:10.185Z,93.85
2023-02-08T01:46:10.203Z,93.75
2023-02-08T01:47:10.108Z,93.85
2023-02-08T01:48:10.065Z,93.75
2023-02-08T01:49:10.028Z,93.56
2023-02-08T01:50:10.000Z,93.66
2023-02-08T01:51:09.940Z,93.85
2023-02-08T01:52:09.899Z,93.56
2023-02-08T01:53:09.857Z,93.18
2023-02-08T01:54:09.840Z,93.56
2023-02-08T01:55:09.768Z,93.47
2023-02-08T01:56:09.728Z,93.37
2023-02-08T01:57:09.680Z,93.09
2023-02-08T01:58:09.640Z,93.47
2023-02-08T01:59:09.600Z,93.47
2023-02-08T02:00:09.563Z,93.37
2023-02-08T02:01:09.529Z,93.18
2023-02-08T02:02:09.476Z,93.47
2023-02-08T02:03:09.432Z,93.37
2023-02-08T02:04:09.410Z,93.47
2023-02-08T02:05:09.351Z,93.28
2023-02-08T02:06:09.310Z,92.99
2023-02-08T02:07:09.265Z,93.37
2023-02-08T02:08:09.225Z,93.18
2023-02-08T02:09:09.187Z,93.09
2023-02-08T02:10:09.159Z,92.90
2023-02-08T02:11:09.101Z,92.80
2023-02-08T02:12:09.059Z,93.09
2023-02-08T02:13:09.012Z,93.09
2023-02-08T02:14:08.978Z,92.99
2023-02-08T02:15:08.928Z,92.80
2023-02-08T02:16:08.922Z,93.47
2023-02-08T02:17:08.849Z,93.47
2023-02-08T02:18:08.806Z,92.90
2023-02-08T02:19:08.764Z,93.18
2023-02-08T02:20:08.722Z,93.18
2023-02-08T02:21:08.678Z,93.18
2023-02-08T02:22:08.640Z,92.43
2023-02-08T02:23:08.598Z,93.18
2023-02-08T02:24:08.571Z,93.18
2023-02-08T02:25:08.520Z,93.28
2023-02-08T02:26:08.464Z,92.99
2023-02-08T02:27:08.432Z,92.61
2023-02-08T02:28:08.421Z,93.28
2023-02-08T02:29:08.348Z,93.28
2023-02-08T02:30:08.306Z,93.47
2023-02-08T02:31:08.259Z,93.37
2023-02-08T02:32:08.230Z,93.28
2023-02-08T02:33:08.217Z,93.28
2023-02-08T02:34:08.134Z,92.80
2023-02-08T02:35:08.095Z,93.09
2023-02-08T02:36:08.056Z,93.37
2023-02-08T02:37:08.005Z,92.90
2023-02-08T02:38:07.966Z,93.37
2023-02-08T02:39:07.925Z,93.09
2023-02-08T02:40:07.882Z,93.37
2023-02-08T02:41:07.841Z,93.18
2023-02-08T02:42:07.798Z,93.37
2023-02-08T02:43:07.764Z,93.37
2023-02-08T02:44:07.715Z,93.47
2023-02-08T02:45:07.671Z,93.28
2023-02-08T02:46:07.692Z,92.71
2023-02-08T02:47:07.597Z,93.18
2023-02-08T02:48:07.552Z,93.18
2023-02-08T02:49:07.508Z,93.28
2023-02-08T02:50:07.469Z,93.47
2023-02-08T02:51:07.427Z,92.99
2023-02-08T02:52:07.395Z,92.99
2023-02-08T02:53:07.341Z,93.28
2023-02-08T02:54:07.314Z,93.09
2023-02-08T02:55:07.261Z,92.52
2023-02-08T02:56:07.216Z,92.33
2023-02-08T02:57:07.192Z,92.71
2023-02-08T02:58:07.138Z,92.80
2023-02-08T02:59:07.110Z,92.71
2023-02-08T03:00:07.054Z,92.80
2023-02-08T03:01:07.046Z,92.52
2023-02-08T03:02:06.973Z,92.33
2023-02-08T03:03:06.939Z,92.80
2023-02-08T03:04:06.910Z,92.80
2023-02-08T03:05:06.848Z,93.09
2023-02-08T03:06:06.808Z,92.61
2023-02-08T03:07:06.758Z,92.52
2023-02-08T03:08:06.716Z,92.71
2023-02-08T03:09:06.678Z,92.61
2023-02-08T03:10:06.634Z,92.71
2023-02-08T03:11:06.595Z,92.71
2023-02-08T03:12:06.558Z,92.90
2023-02-08T03:13:06.511Z,92.90
2023-02-08T03:14:06.469Z,92.80
2023-02-08T03:15:06.432Z,92.99
2023-02-08T03:16:06.380Z,92.61
2023-02-08T03:17:06.349Z,92.61
2023-02-08T03:18:06.298Z,92.61
2023-02-08T03:19:06.265Z,92.90
2023-02-08T03:20:06.224Z,92.90
2023-02-08T03:21:06.171Z,92.71
2023-02-08T03:22:06.133Z,92.80
2023-02-08T03:23:06.090Z,92.61
2023-02-08T03:24:06.046Z,92.61
2023-02-08T03:25:06.004Z,92.80
2023-02-08T03:26:05.965Z,92.80
2023-02-08T03:27:05.921Z,92.90
2023-02-08T03:28:05.912Z,92.61
2023-02-08T03:29:05.845Z,92.61
2023-02-08T03:30:05.797Z,92.90
2023-02-08T03:31:05.843Z,93.09
2023-02-08T03:32:05.719Z,92.52
2023-02-08T03:33:05.666Z,92.61
2023-02-08T03:34:05.628Z,92.52
2023-02-08T03:35:05.592Z,92.61
2023-02-08T03:36:05.545Z,92.52
2023-02-08T03:37:05.507Z,92.80
2023-02-08T03:38:05.466Z,92.43
2023-02-08T03:39:05.423Z,92.52
2023-02-08T03:40:05.375Z,92.52
2023-02-08T03:41:05.344Z,92.80
2023-02-08T03:42:05.297Z,92.61
2023-02-08T03:43:05.257Z,92.61
2023-02-08T03:44:05.210Z,92.61
2023-02-08T03:45:05.193Z,92.52
2023-02-08T03:46:05.200Z,92.24
2023-02-08T03:47:05.086Z,92.33
2023-02-08T03:48:05.045Z,92.14
2023-02-08T03:49:05.006Z,92.05
2023-02-08T03:50:04.963Z,92.14
2023-02-08T03:51:04.919Z,92.33
2023-02-08T03:52:04.883Z,92.33
2023-02-08T03:53:04.840Z,92.33
2023-02-08T03:54:04.792Z,92.14
2023-02-08T03:55:04.777Z,92.61
2023-02-08T03:56:04.704Z,92.61
2023-02-08T03:57:04.678Z,92.24
2023-02-08T03:58:04.623Z,92.43
2023-02-08T03:59:04.575Z,92.43
2023-02-08T04:00:04.541Z,92.14
2023-02-08T04:01:04.599Z,91.86
2023-02-08T04:02:04.451Z,91.96
2023-02-08T04:03:04.415Z,91.96
2023-02-08T04:04:04.379Z,91.96
2023-02-08T04:05:04.327Z,92.24
2023-02-08T04:06:04.296Z,92.52
2023-02-08T04:07:04.247Z,92.80
2023-02-08T04:08:04.202Z,92.43
2023-02-08T04:09:04.170Z,92.52
2023-02-08T04:10:04.114Z,92.52
2023-02-08T04:11:04.076Z,92.43
2023-02-08T04:12:04.040Z,92.61
2023-02-08T04:13:03.989Z,92.80
2023-02-08T04:14:03.994Z,92.61
2023-02-08T04:15:03.907Z,92.71
2023-02-08T04:16:03.912Z,92.80
2023-02-08T04:17:03.828Z,92.80
2023-02-08T04:18:03.779Z,92.71
2023-02-08T04:19:03.743Z,92.61
2023-02-08T04:20:03.695Z,92.52
2023-02-08T04:21:03.654Z,92.99
2023-02-08T04:22:03.618Z,92.52
2023-02-08T04:23:03.575Z,92.99
2023-02-08T04:24:03.539Z,92.71
2023-02-08T04:25:03.488Z,92.80
2023-02-08T04:26:03.442Z,92.71
2023-02-08T04:27:05.763Z,92.24
2023-02-08T04:28:03.439Z,92.61
2023-02-08T04:29:03.323Z,93.18
2023-02-08T04:30:03.282Z,93.09
2023-02-08T04:31:03.386Z,93.56
2023-02-08T04:32:03.199Z,93.09
2023-02-08T04:33:03.157Z,93.47
2023-02-08T04:34:03.142Z,93.09
2023-02-08T04:35:03.083Z,93.28
2023-02-08T04:36:03.031Z,93.37
2023-02-08T04:37:02.992Z,92.99
2023-02-08T04:38:02.951Z,92.80
2023-02-08T04:39:02.909Z,93.09
2023-02-08T04:40:02.871Z,93.47
2023-02-08T04:41:02.830Z,93.56
2023-02-08T04:42:03.405Z,93.18
2023-02-08T04:43:02.743Z,93.56
2023-02-08T04:44:02.699Z,93.66
2023-02-08T04:45:02.666Z,93.66
2023-02-08T04:46:02.691Z,94.04
2023-02-08T04:47:02.583Z,93.75
2023-02-08T04:48:02.539Z,93.66
2023-02-08T04:49:02.493Z,93.85
2023-02-08T04:50:02.448Z,93.56
2023-02-08T04:51:02.405Z,94.23
2023-02-08T04:52:02.369Z,94.23
2023-02-08T04:53:02.324Z,93.85
2023-02-08T04:54:02.281Z,93.85
2023-02-08T04:55:02.243Z,94.32
2023-02-08T04:56:02.194Z,94.42
2023-02-08T04:57:02.164Z,94.70
2023-02-08T04:58:02.138Z,94.98
2023-02-08T04:59:02.103Z,94.79
2023-02-08T05:00:02.053Z,94.79
2023-02-08T05:01:01.999Z,94.98
2023-02-08T05:02:01.947Z,95.07
2023-02-08T05:03:01.905Z,94.89
2023-02-08T05:04:01.870Z,94.79
2023-02-08T05:05:01.866Z,94.98
2023-02-08T05:06:01.781Z,94.98
2023-02-08T05:07:01.731Z,95.07
2023-02-08T05:08:01.695Z,94.98
2023-02-08T05:09:01.653Z,94.98
2023-02-08T05:10:01.622Z,95.26
2023-02-08T05:11:01.564Z,94.51
2023-02-08T05:12:01.554Z,94.98
2023-02-08T05:13:01.479Z,95.50
2023-02-08T05:14:01.440Z,95.36
2023-02-08T05:15:01.446Z,94.93
2023-02-08T05:16:01.385Z,94.98
2023-02-08T05:17:01.310Z,94.56
2023-02-08T05:18:01.277Z,95.55
2023-02-08T05:19:01.236Z,95.40
2023-02-08T05:20:01.189Z,95.45
2023-02-08T05:21:01.148Z,95.31
2023-02-08T05:22:01.096Z,95.45
2023-02-08T05:23:01.061Z,95.31
2023-02-08T05:24:01.018Z,95.21
2023-02-08T05:25:00.971Z,95.36
2023-02-08T05:26:00.936Z,95.40
2023-02-08T05:27:00.905Z,95.40
2023-02-08T05:28:00.915Z,95.12
2023-02-08T05:29:00.802Z,95.40
2023-02-08T05:30:00.767Z,94.60
2023-02-08T05:31:00.811Z,94.84
2023-02-08T05:32:00.767Z,94.93
2023-02-08T05:33:00.643Z,94.93
2023-02-08T05:34:00.605Z,94.93
2023-02-08T05:35:00.561Z,94.89
2023-02-08T05:36:00.512Z,95.40
2023-02-08T05:37:00.472Z,95.55
2023-02-08T05:38:00.424Z,95.36
2023-02-08T05:39:00.385Z,95.45
2023-02-08T05:40:00.344Z,94.89
2023-02-08T05:41:00.295Z,95.03
2023-02-08T05:42:00.259Z,94.98
2023-02-08T05:43:00.212Z,95.07
2023-02-08T05:44:00.173Z,94.98
2023-02-08T05:45:00.130Z,94.98
2023-02-08T05:46:00.117Z,94.89
2023-02-08T05:47:00.140Z,94.56
2023-02-08T05:47:59.998Z,94.60
2023-02-08T05:48:59.960Z,94.84
2023-02-08T05:49:59.921Z,94.37
2023-02-08T05:50:59.870Z,94.70
2023-02-08T05:51:59.833Z,94.42
2023-02-08T05:52:59.794Z,94.56
2023-02-08T05:53:59.745Z,94.46
2023-02-08T05:54:59.704Z,94.60
2023-02-08T05:55:59.676Z,94.60
2023-02-08T05:56:59.623Z,94.60
2023-02-08T05:57:59.578Z,94.51
2023-02-08T05:58:59.544Z,94.65
2023-02-08T05:59:59.504Z,94.27
2023-02-08T06:00:59.454Z,94.51
2023-02-08T06:01:59.413Z,94.32
2023-02-08T06:02:59.428Z,94.51
2023-02-08T06:03:59.362Z,94.65
2023-02-08T06:04:59.296Z,94.32
2023-02-08T06:05:59.258Z,94.42
2023-02-08T06:06:59.197Z,94.37
2023-02-08T06:07:59.155Z,94.60
2023-02-08T06:08:59.115Z,94.27
2023-02-08T06:09:59.087Z,93.94
2023-02-08T06:10:59.061Z,94.18
2023-02-08T06:11:58.989Z,93.94
2023-02-08T06:12:58.956Z,94.08
2023-02-08T06:13:58.901Z,94.32
2023-02-08T06:14:58.880Z,93.85
2023-02-08T06:15:58.829Z,94.18
2023-02-08T06:16:58.782Z,94.08
2023-02-08T06:17:58.737Z,94.18
2023-02-08T06:18:58.690Z,94.32
2023-02-08T06:19:58.654Z,94.23
2023-02-08T06:20:58.610Z,94.23
2023-02-08T06:21:58.567Z,94.08
2023-02-08T06:22:58.526Z,94.08
2023-02-08T06:23:58.498Z,93.75
2023-02-08T06:24:58.446Z,94.27
2023-02-08T06:25:58.395Z,93.89
2023-02-08T06:26:58.359Z,94.13
2023-02-08T06:27:58.364Z,94.08
2023-02-08T06:28:58.277Z,93.89
2023-02-08T06:29:58.239Z,94.70
2023-02-08T06:30:58.203Z,94.51
2023-02-08T06:31:58.237Z,94.70
2023-02-08T06:32:58.105Z,94.79
2023-02-08T06:33:58.059Z,94.89
2023-02-08T06:34:58.028Z,95.07
2023-02-08T06:35:57.986Z,94.70
2023-02-08T06:36:57.940Z,94.65
2023-02-08T06:37:57.904Z,94.98
2023-02-08T06:38:57.874Z,94.51
2023-02-08T06:39:57.809Z,94.37
2023-02-08T06:40:57.784Z,94.93
2023-02-08T06:41:57.727Z,94.46
2023-02-08T06:42:57.688Z,94.93
2023-02-08T06:43:57.641Z,95.03
2023-02-08T06:44:57.602Z,94.84
2023-02-08T06:45:57.575Z,94.84
2023-02-08T06:46:57.516Z,94.93
2023-02-08T06:47:57.472Z,94.84
2023-02-08T06:48:57.454Z,94.74
2023-02-08T06:49:57.392Z,95.03
2023-02-08T06:50:57.356Z,94.93
2023-02-08T06:51:57.310Z,95.40
2023-02-08T06:52:57.260Z,95.31
2023-02-08T06:53:57.240Z,95.50
2023-02-08T06:54:57.185Z,95.31
2023-02-08T06:55:57.133Z,95.21
2023-02-08T06:56:57.100Z,95.31
2023-02-08T06:57:57.054Z,95.12
2023-02-08T06:58:57.007Z,95.12
2023-02-08T06:59:56.963Z,95.40
2023-02-08T07:00:56.949Z,95.21
2023-02-08T07:01:56.892Z,95.21
2023-02-08T07:02:56.848Z,95.40
2023-02-08T07:03:56.796Z,95.21
2023-02-08T07:04:56.762Z,95.21
2023-02-08T07:06:04.858Z,95.50
2023-02-08T07:06:56.672Z,95.50
2023-02-08T07:07:56.641Z,95.50
2023-02-08T07:08:56.588Z,95.21
2023-02-08T07:09:56.567Z,95.50
2023-02-08T07:10:56.505Z,95.40
2023-02-08T07:11:56.473Z,95.50
2023-02-08T07:12:56.419Z,95.40
2023-02-08T07:13:56.379Z,95.03
2023-02-08T07:14:56.337Z,95.03
2023-02-08T07:15:56.293Z,95.03
2023-02-08T07:16:56.520Z,95.31
2023-02-08T07:17:56.207Z,95.12
2023-02-08T07:18:56.174Z,95.12
2023-02-08T07:19:56.121Z,95.50
2023-02-08T07:20:56.081Z,95.21
2023-02-08T07:21:56.047Z,95.03
2023-02-08T07:22:55.998Z,95.31
2023-02-08T07:23:55.956Z,95.12
2023-02-08T07:24:55.917Z,95.12
2023-02-08T07:25:55.875Z,95.03
2023-02-08T07:26:55.829Z,95.40
2023-02-08T07:27:55.805Z,95.17
2023-02-08T07:28:55.752Z,95.12
2023-02-08T07:29:55.698Z,94.93
2023-02-08T07:30:55.714Z,95.21
2023-02-08T07:31:55.682Z,95.12
2023-02-08T07:32:55.578Z,95.40
2023-02-08T07:33:55.536Z,95.40
2023-02-08T07:34:55.490Z,95.21
2023-02-08T07:35:55.455Z,95.21
2023-02-08T07:36:55.408Z,95.59
2023-02-08T07:37:55.365Z,95.31
2023-02-08T07:38:55.333Z,95.31
2023-02-08T07:39:55.280Z,95.07
2023-02-08T07:40:55.247Z,95.21
2023-02-08T07:41:55.214Z,95.26
2023-02-08T07:42:55.159Z,95.88
2023-02-08T07:43:55.115Z,95.21
2023-02-08T07:44:55.069Z,95.26
2023-02-08T07:45:55.085Z,95.12
2023-02-08T07:46:55.009Z,95.21
2023-02-08T07:47:54.944Z,95.45
2023-02-08T07:48:54.905Z,95.36
2023-02-08T07:49:54.866Z,95.03
2023-02-08T07:50:54.826Z,95.26
2023-02-08T07:51:54.774Z,95.50
2023-02-08T07:52:54.738Z,95.26
2023-02-08T07:53:54.698Z,95.03
2023-02-08T07:54:54.665Z,95.12
2023-02-08T07:55:54.606Z,95.45
2023-02-08T07:56:54.568Z,95.26
2023-02-08T07:57:54.524Z,95.26
2023-02-08T07:58:54.493Z,95.45
2023-02-08T07:59:54.441Z,94.60
2023-02-08T08:00:54.411Z,94.89
2023-02-08T08:01:54.467Z,95.07
2023-02-08T08:02:54.312Z,94.98
2023-02-08T08:03:54.321Z,94.89
2023-02-08T08:04:54.243Z,94.98
2023-02-08T08:05:55.089Z,95.07
2023-02-08T08:06:54.151Z,95.36
2023-02-08T08:07:54.104Z,94.89
2023-02-08T08:08:54.091Z,95.07
2023-02-08T08:09:54.020Z,94.51
2023-02-08T08:10:53.984Z,94.98
2023-02-08T08:11:53.938Z,94.79
2023-02-08T08:12:53.901Z,95.07
2023-02-08T08:13:53.862Z,94.79
2023-02-08T08:14:53.813Z,94.98
2023-02-08T08:15:53.773Z,94.42
2023-02-08T08:16:53.733Z,94.70
2023-02-08T08:17:53.687Z,95.26
2023-02-08T08:18:53.643Z,94.60
2023-02-08T08:19:53.603Z,95.07
2023-02-08T08:20:53.561Z,94.98
2023-02-08T08:21:53.531Z,94.79
2023-02-08T08:22:53.491Z,94.51
2023-02-08T08:23:53.440Z,94.42
2023-02-08T08:24:53.394Z,94.60
2023-02-08T08:25:53.350Z,94.51
2023-02-08T08:26:53.313Z,94.60
2023-02-08T08:27:53.281Z,94.42
2023-02-08T08:28:53.289Z,94.42
2023-02-08T08:29:53.192Z,94.60
2023-02-08T08:30:53.298Z,93.94
2023-02-08T08:31:53.143Z,93.85
2023-02-08T08:32:53.062Z,94.23
2023-02-08T08:33:53.016Z,93.75
2023-02-08T08:34:52.985Z,94.04
2023-02-08T08:35:52.931Z,94.13
2023-02-08T08:36:52.894Z,94.04
2023-02-08T08:37:52.851Z,94.13
2023-02-08T08:38:52.810Z,94.27
2023-02-08T08:39:52.764Z,94.18
2023-02-08T08:40:52.727Z,94.51
2023-02-08T08:41:52.699Z,94.32
2023-02-08T08:42:52.658Z,93.70
2023-02-08T08:43:52.601Z,94.04
2023-02-08T08:44:52.560Z,93.42
2023-02-08T08:45:53.169Z,93.89
2023-02-08T08:46:52.483Z,93.89
2023-02-08T08:47:52.433Z,93.42
2023-02-08T08:48:52.408Z,93.42
2023-02-08T08:49:52.360Z,93.13
2023-02-08T08:50:52.321Z,93.23
2023-02-08T08:51:52.272Z,93.13
2023-02-08T08:52:52.225Z,92.94
2023-02-08T08:53:52.190Z,93.13
2023-02-08T08:54:52.155Z,92.66
2023-02-08T08:55:52.107Z,92.47
2023-02-08T08:56:52.059Z,92.66
2023-02-08T08:57:52.016Z,92.47
2023-02-08T08:58:51.977Z,92.47
2023-02-08T08:59:51.941Z,91.72
2023-02-08T09:00:51.892Z,91.72
2023-02-08T09:01:51.979Z,91.34
2023-02-08T09:02:51.815Z,92.19
2023-02-08T09:03:51.768Z,91.91
2023-02-08T09:04:51.726Z,91.81
2023-02-08T09:05:51.681Z,91.43
2023-02-08T09:06:51.644Z,90.96
2023-02-08T09:07:51.596Z,90.48
2023-02-08T09:08:51.910Z,90.96
2023-02-08T09:09:51.531Z,90.81
2023-02-08T09:10:51.484Z,90.06
2023-02-08T09:11:51.435Z,89.77
2023-02-08T09:12:51.409Z,90.15
2023-02-08T09:13:51.359Z,89.87
2023-02-08T09:14:51.316Z,90.06
2023-02-08T09:15:51.346Z,89.68
2023-02-08T09:16:51.234Z,89.49
2023-02-08T09:17:51.202Z,89.77
2023-02-08T09:18:51.148Z,90.34
2023-02-08T09:19:51.114Z,89.87
2023-02-08T09:20:51.067Z,89.49
2023-02-08T09:21:51.023Z,89.58
2023-02-08T09:22:50.984Z,89.49
2023-02-08T09:23:50.947Z,89.87
2023-02-08T09:24:50.903Z,89.01
2023-02-08T09:25:50.859Z,89.01
2023-02-08T09:26:50.841Z,89.30
2023-02-08T09:27:50.798Z,88.73
2023-02-08T09:28:50.746Z,89.01
2023-02-08T09:29:50.697Z,89.39
2023-02-08T09:30:50.666Z,89.49
2023-02-08T09:31:50.757Z,89.44
2023-02-08T09:32:50.578Z,89.01
2023-02-08T09:33:50.543Z,88.40
2023-02-08T09:34:50.493Z,88.30
2023-02-08T09:35:50.462Z,88.02
2023-02-08T09:36:50.416Z,88.59
2023-02-08T09:37:50.375Z,88.35
2023-02-08T09:38:50.333Z,87.92
2023-02-08T09:39:50.303Z,87.54
2023-02-08T09:40:50.265Z,87.16
2023-02-08T09:41:50.219Z,87.07
2023-02-08T09:42:50.184Z,86.79
2023-02-08T09:43:50.133Z,86.50
2023-02-08T09:44:50.095Z,86.03
2023-02-08T09:45:59.152Z,86.22
2023-02-08T09:46:50.111Z,86.12
2023-02-08T09:47:49.998Z,85.65
2023-02-08T09:48:49.930Z,85.36
2023-02-08T09:49:49.922Z,85.55
2023-02-08T09:50:49.849Z,85.55
2023-02-08T09:51:49.811Z,85.17
2023-02-08T09:52:49.769Z,84.80
2023-02-08T09:53:49.727Z,84.51
2023-02-08T09:54:49.694Z,84.61
2023-02-08T09:55:49.652Z,85.08
2023-02-08T09:56:49.605Z,84.32
2023-02-08T09:57:49.566Z,83.66
2023-02-08T09:58:49.542Z,83.94
2023-02-08T09:59:49.490Z,83.56
2023-02-08T10:00:49.478Z,83.13
2023-02-08T10:01:49.409Z,83.51
2023-02-08T10:02:49.368Z,82.94
2023-02-08T10:03:49.334Z,82.56
2023-02-08T10:04:49.284Z,82.75
2023-02-08T10:05:49.260Z,83.23
2023-02-08T10:06:50.227Z,83.04
2023-02-08T10:07:49.173Z,83.23
2023-02-08T10:08:49.134Z,82.66
2023-02-08T10:09:49.086Z,82.18
2023-02-08T10:10:49.053Z,81.71
2023-02-08T10:11:49.016Z,81.90
2023-02-08T10:12:48.976Z,81.14
2023-02-08T10:13:48.934Z,80.90
2023-02-08T10:14:48.894Z,80.52
2023-02-08T10:15:48.849Z,80.52
2023-02-08T10:16:48.826Z,80.80
2023-02-08T10:17:48.789Z,80.52
2023-02-08T10:18:48.764Z,80.52
2023-02-08T10:19:48.703Z,79.95
2023-02-08T10:20:48.656Z,80.27
2023-02-08T10:21:48.730Z,80.37
2023-02-08T10:22:48.582Z,79.99
2023-02-08T10:23:48.544Z,78.75
2023-02-08T10:24:48.507Z,78.75
2023-02-08T10:25:48.510Z,78.28
2023-02-08T10:26:48.437Z,78.28
2023-02-08T10:27:48.519Z,78.42
2023-02-08T10:28:49.313Z,78.61
2023-02-08T10:29:48.321Z,77.47
2023-02-08T10:30:48.338Z,77.75
2023-02-08T10:31:48.362Z,77.56
2023-02-08T10:32:48.212Z,76.14
2023-02-08T10:33:48.170Z,75.79
2023-02-08T10:34:48.137Z,75.04
2023-02-08T10:35:48.092Z,75.23
2023-02-08T10:36:48.086Z,74.85
2023-02-08T10:37:48.025Z,74.56
2023-02-08T10:38:47.992Z,73.80
2023-02-08T10:39:47.949Z,73.80
2023-02-08T10:40:47.915Z,73.84
2023-02-08T10:41:47.878Z,73.18
2023-02-08T10:42:47.862Z,72.79
2023-02-08T10:43:47.819Z,72.89
2023-02-08T10:44:48.483Z,73.18
2023-02-08T10:45:47.772Z,73.11
2023-02-08T10:46:47.698Z,71.88
2023-02-08T10:47:47.663Z,72.16
2023-02-08T10:48:47.623Z,71.59
2023-02-08T10:49:47.603Z,71.59
2023-02-08T10:50:47.585Z,70.83
2023-02-08T10:51:47.580Z,70.10
2023-02-08T10:52:47.484Z,70.10
2023-02-08T10:53:47.452Z,70.10
2023-02-08T10:54:47.421Z,69.92
2023-02-08T10:55:47.379Z,69.15
2023-02-08T10:56:47.341Z,68.40
2023-02-08T10:57:47.311Z,68.40
2023-02-08T10:58:47.295Z,68.52
2023-02-08T10:59:47.256Z,67.76
2023-02-08T11:00:47.261Z,67.86
2023-02-08T11:01:47.243Z,67.19
2023-02-08T11:02:47.251Z,66.81
2023-02-08T11:03:47.136Z,66.46
2023-02-08T11:04:47.066Z,66.85
2023-02-08T11:05:47.041Z,66.94
2023-02-08T11:06:47.020Z,65.80
2023-02-08T11:07:46.963Z,65.42
2023-02-08T11:08:46.934Z,65.70
2023-02-08T11:09:46.948Z,65.64
2023-02-08T11:10:46.864Z,64.69
2023-02-08T11:11:46.835Z,63.92
2023-02-08T11:12:46.802Z,64.02
2023-02-08T11:13:46.766Z,63.45
2023-02-08T11:14:47.626Z,63.35
2023-02-08T11:15:46.687Z,62.49
2023-02-08T11:16:46.697Z,62.34
2023-02-08T11:17:46.640Z,62.81
2023-02-08T11:18:46.594Z,61.96
2023-02-08T11:19:46.559Z,62.05
2023-02-08T11:20:46.520Z,62.34
2023-02-08T11:21:46.504Z,61.76
2023-02-08T11:22:46.456Z,61.80
2023-02-08T11:23:46.426Z,61.51
2023-02-08T11:24:46.882Z,60.84
2023-02-08T11:25:47.438Z,59.99
2023-02-08T11:26:46.330Z,59.41
2023-02-08T11:27:47.112Z,59.70
2023-02-08T11:28:46.255Z,59.51
2023-02-08T11:29:46.825Z,58.55
2023-02-08T11:31:46.290Z,57.98
2023-02-08T11:32:47.277Z,58.07
2023-02-08T11:33:46.293Z,57.92
2023-02-08T11:34:46.135Z,57.63
2023-02-08T11:35:46.074Z,58.20
2023-02-08T11:36:46.081Z,57.53
2023-02-08T11:37:46.037Z,56.38
2023-02-08T11:38:45.922Z,56.77
2023-02-08T11:39:45.892Z,56.51
2023-02-08T11:40:45.859Z,56.70
2023-02-08T11:41:46.068Z,56.41
2023-02-08T11:42:46.047Z,57.37
2023-02-08T11:43:46.253Z,56.99
2023-02-08T11:44:47.477Z,56.41
2023-02-08T11:45:45.909Z,56.16
2023-02-08T11:46:45.649Z,55.30
2023-02-08T11:47:45.623Z,55.30
2023-02-08T11:48:45.619Z,55.11
2023-02-08T11:49:45.552Z,55.20
2023-02-08T11:50:45.522Z,55.40
2023-02-08T11:51:45.502Z,55.49
2023-02-08T11:52:45.460Z,55.40
2023-02-08T11:53:45.422Z,55.01
2023-02-08T11:54:45.391Z,54.72
2023-02-08T11:55:45.477Z,54.06
2023-02-08T11:56:45.329Z,54.06
2023-02-08T11:57:45.293Z,53.67
2023-02-08T11:58:45.261Z,53.89
2023-02-08T11:59:45.229Z,53.89
2023-02-08T12:00:45.199Z,54.37
2023-02-08T12:01:45.160Z,53.70
2023-02-08T12:02:45.166Z,53.70
2023-02-08T12:03:45.156Z,53.82
2023-02-08T12:04:45.087Z,53.63
2023-02-08T12:05:45.271Z,53.16
2023-02-08T12:06:44.998Z,52.75
2023-02-08T12:07:44.967Z,52.94
2023-02-08T12:08:44.930Z,52.55
2023-02-08T12:09:44.911Z,52.55
2023-02-08T12:10:44.860Z,52.29
2023-02-08T12:11:44.830Z,52.77
2023-02-08T12:12:44.795Z,52.10
2023-02-08T12:13:44.771Z,53.06
2023-02-08T12:14:44.738Z,52.46
2023-02-08T12:15:57.401Z,51.41
2023-02-08T12:16:44.698Z,51.57
2023-02-08T12:17:44.654Z,51.89
2023-02-08T12:18:44.596Z,52.17
2023-02-08T12:19:44.586Z,51.98
2023-02-08T12:20:44.537Z,52.46
2023-02-08T12:21:44.498Z,51.53
2023-02-08T12:22:44.465Z,52.01
2023-02-08T12:23:44.433Z,51.62
2023-02-08T12:24:44.403Z,51.43
2023-02-08T12:25:44.711Z,50.95
2023-02-08T12:26:44.330Z,50.19
2023-02-08T12:27:44.298Z,50.19
2023-02-08T12:28:44.276Z,51.05
2023-02-08T12:29:48.454Z,51.05
2023-02-08T12:30:44.298Z,52.20
2023-02-08T12:31:44.218Z,51.84
2023-02-08T12:32:44.142Z,50.67
2023-02-08T12:33:44.121Z,49.84
2023-02-08T12:34:44.064Z,49.84
2023-02-08T12:36:01.414Z,50.12
2023-02-08T12:36:43.999Z,50.12
2023-02-08T12:37:44.004Z,50.21
2023-02-08T12:38:43.937Z,49.74
2023-02-08T12:39:43.898Z,49.35
2023-02-08T12:40:43.870Z,48.97
2023-02-08T12:41:43.834Z,49.35
2023-02-08T12:42:43.806Z,49.35
2023-02-08T12:43:43.773Z,48.78
2023-02-08T12:44:43.730Z,49.16
2023-02-08T12:45:44.104Z,49.45
2023-02-08T12:46:43.682Z,49.55
2023-02-08T12:47:51.699Z,48.97
2023-02-08T12:48:43.638Z,48.88
2023-02-08T12:49:43.593Z,48.97
2023-02-08T12:50:43.545Z,49.48
2023-02-08T12:51:43.509Z,49.38
2023-02-08T12:52:43.474Z,49.48